Winnemucca Colony, Nevada
Current Conditions -  °F | °C
As of 11:56 PM on Friday 24 Oct 2014 (Local Time) from KWMC Reporting Station
Clear Clear  
Wind Chill: 41°   Ceiling: Unl
Heat Index: 45°   Visibility: 10mi
Dew Point: 19°   Wind: 7mph
Humidity: 36%   Direction: 100°E
Pressure: 29.95"   Gusts: NA
Location:  41.1353°N, 118.186°W
Report Text: KWMC 250656Z AUTO 10006KT 10SM CLR 07/M07 A2995 RMK AO2 SLP119 T00721072
Loading
Personal Weather Stations






























Interactive Weather Map
Tropical Storm Tracking
New forecast layout! Learn more

10-Day Weather Forecast

Advertisements
Track Severe Weather on mobile